Time;durP1;ratioP1;P1;durP2;ratioP2;P2;SDS_P1;SDS_P2;PMS_P1;PMS_P2;Temp;Humidity;BMP_temperature;BMP_pressure;BME280_temperature;BME280_humidity;BME280_pressure;Samples;Min_cycle;Max_cycle;Signal;HPM_P1;HPM_P2
2023/12/30 06:01:47;;;;;;;3.78;0.80;;;9.00;84.50;;;;;;4298753;23;20070;-78
2023/12/30 06:03:48;;;;;;;4.43;0.80;;;9.00;84.70;;;;;;4119620;28;20051;-78
2023/12/30 06:05:50;;;;;;;3.28;1.00;;;9.00;85.00;;;;;;4118749;28;20047;-78
2023/12/30 06:07:51;;;;;;;2.47;0.68;;;8.90;85.20;;;;;;4119216;28;20528;-79
2023/12/30 06:09:53;;;;;;;2.45;0.70;;;8.90;85.60;;;;;;4119084;28;20050;-77
2023/12/30 06:11:55;;;;;;;3.03;0.90;;;8.90;86.00;;;;;;4119145;28;20480;-79
2023/12/30 06:13:56;;;;;;;3.85;0.90;;;8.90;86.00;;;;;;4118731;28;20050;-79
2023/12/30 06:15:58;;;;;;;4.03;1.00;;;9.00;86.00;;;;;;4119062;28;20047;-79
2023/12/30 06:18:01;;;;;;;5.05;0.95;;;9.00;86.20;;;;;;4118453;28;20043;-79
2023/12/30 06:20:04;;;;;;;6.35;1.08;;;9.00;86.20;;;;;;4118547;28;20086;-79
2023/12/30 06:22:06;;;;;;;2.42;0.88;;;9.00;86.30;;;;;;4114942;28;20109;-79
2023/12/30 06:24:08;;;;;;;3.05;0.80;;;9.00;86.30;;;;;;4116856;28;20056;-79
2023/12/30 06:26:10;;;;;;;2.40;0.88;;;9.00;86.40;;;;;;4118398;28;20098;-78
2023/12/30 06:28:15;;;;;;;2.50;0.85;;;9.00;86.60;;;;;;4118274;28;20076;-76
2023/12/30 06:30:17;;;;;;;2.90;1.00;;;9.00;86.80;;;;;;4118047;28;20134;-77
2023/12/30 06:32:19;;;;;;;3.53;1.15;;;9.00;87.20;;;;;;4118130;28;20042;-77
2023/12/30 06:34:21;;;;;;;3.50;1.05;;;9.00;87.30;;;;;;4115677;28;20051;-76
2023/12/30 06:36:23;;;;;;;5.60;1.25;;;9.00;87.60;;;;;;4118099;28;20053;-76
2023/12/30 06:38:25;;;;;;;3.92;1.20;;;9.00;87.80;;;;;;4117661;28;20126;-76
2023/12/30 06:40:27;;;;;;;5.13;1.00;;;8.90;88.40;;;;;;4112135;28;20113;-76
2023/12/30 06:42:29;;;;;;;3.80;0.90;;;8.90;88.90;;;;;;4106732;28;20074;-78
2023/12/30 06:44:31;;;;;;;3.13;0.90;;;8.90;89.50;;;;;;4118335;28;20382;-77
2023/12/30 06:46:33;;;;;;;2.80;1.30;;;8.90;89.70;;;;;;4113212;28;20102;-78
2023/12/30 06:48:35;;;;;;;3.78;1.17;;;8.90;90.00;;;;;;4116956;28;20491;-79
2023/12/30 06:50:38;;;;;;;5.95;1.10;;;8.80;90.00;;;;;;4118209;28;20078;-76
2023/12/30 06:52:39;;;;;;;4.20;1.08;;;8.80;90.20;;;;;;4118241;28;20046;-79
2023/12/30 06:54:41;;;;;;;3.13;1.08;;;8.80;90.00;;;;;;4116423;28;20102;-77
2023/12/30 06:56:44;;;;;;;5.50;1.35;;;8.80;90.10;;;;;;4117635;28;20113;-79
2023/12/30 06:58:46;;;;;;;2.92;1.10;;;8.80;90.00;;;;;;4102035;29;20185;-76
2023/12/30 07:00:47;;;;;;;5.68;1.15;;;8.80;89.90;;;;;;4115727;28;20059;-79
2023/12/30 07:02:49;;;;;;;5.68;1.25;;;8.80;89.90;;;;;;4117859;28;20477;-79
2023/12/30 07:04:51;;;;;;;4.65;1.35;;;8.80;89.90;;;;;;4118017;28;20436;-78
2023/12/30 07:06:56;;;;;;;3.78;1.20;;;8.80;89.90;;;;;;4117894;28;20054;-78
2023/12/30 07:08:57;;;;;;;5.25;1.20;;;8.80;89.70;;;;;;4117844;28;20503;-79
2023/12/30 07:10:59;;;;;;;3.80;1.17;;;8.80;89.70;;;;;;4117518;28;20043;-78
2023/12/30 07:13:01;;;;;;;3.67;1.30;;;8.70;89.70;;;;;;4116381;28;20047;-77
2023/12/30 07:15:03;;;;;;;5.60;1.35;;;8.70;89.60;;;;;;4117488;28;20562;-80
2023/12/30 07:17:05;;;;;;;2.78;1.10;;;8.70;89.60;;;;;;4117300;28;20448;-77
2023/12/30 07:19:07;;;;;;;4.32;1.30;;;8.70;89.60;;;;;;4115887;28;20481;-80
2023/12/30 07:21:09;;;;;;;4.90;1.40;;;8.70;89.70;;;;;;4117026;28;20058;-77
2023/12/30 07:23:12;;;;;;;4.88;1.50;;;8.70;90.00;;;;;;4117450;28;20050;-79
2023/12/30 07:25:15;;;;;;;3.25;1.20;;;8.70;90.10;;;;;;4105613;28;20098;-79
2023/12/30 07:27:17;;;;;;;4.15;1.33;;;8.70;90.20;;;;;;4117186;28;20058;-78
2023/12/30 07:29:19;;;;;;;6.18;1.40;;;8.60;90.20;;;;;;4117239;28;20452;-78
2023/12/30 07:31:21;;;;;;;4.15;1.27;;;8.70;90.20;;;;;;4117361;28;20109;-78
2023/12/30 07:33:23;;;;;;;4.20;1.48;;;8.70;90.10;;;;;;4117423;28;20094;-80
2023/12/30 07:35:27;;;;;;;4.55;1.52;;;8.70;90.20;;;;;;4117085;28;20051;-78
2023/12/30 07:37:29;;;;;;;3.90;1.30;;;8.60;90.20;;;;;;4117466;28;20134;-80
2023/12/30 07:39:33;;;;;;;9.13;1.48;;;8.70;90.20;;;;;;4117131;28;20150;-79
2023/12/30 07:41:34;;;;;;;5.57;1.20;;;8.70;90.20;;;;;;4117314;28;20568;-79
2023/12/30 07:43:36;;;;;;;4.50;1.70;;;8.70;90.30;;;;;;4117322;28;20043;-77
2023/12/30 07:45:38;;;;;;;7.35;1.58;;;8.70;90.30;;;;;;4117361;28;20051;-78
2023/12/30 07:47:40;;;;;;;3.30;1.48;;;8.70;90.30;;;;;;4117317;28;20046;-79
2023/12/30 07:49:42;;;;;;;5.43;1.60;;;8.70;90.40;;;;;;4105418;28;20089;-79
2023/12/30 07:51:44;;;;;;;5.38;1.60;;;8.70;90.40;;;;;;4115305;28;20420;-79
2023/12/30 07:53:44;;;;;;;4.50;1.30;;;8.70;90.20;;;;;;4117053;28;20051;-79
2023/12/30 07:55:48;;;;;;;5.88;1.40;;;8.70;90.20;;;;;;4113211;28;20046;-79
2023/12/30 07:57:50;;;;;;;5.80;1.35;;;8.70;90.00;;;;;;4116533;28;20078;-80
2023/12/30 07:59:52;;;;;;;3.45;1.20;;;8.70;90.10;;;;;;4116498;28;20159;-80
2023/12/30 08:01:56;;;;;;;4.30;1.10;;;8.80;90.00;;;;;;4116695;28;20514;-79
2023/12/30 08:03:57;;;;;;;3.45;1.27;;;8.80;89.90;;;;;;4101205;28;20138;-76
2023/12/30 08:05:59;;;;;;;5.35;1.50;;;8.80;90.20;;;;;;4101143;29;20047;-77
2023/12/30 08:08:02;;;;;;;3.65;1.27;;;8.80;89.70;;;;;;4108671;28;20106;-77
2023/12/30 08:10:04;;;;;;;3.13;1.40;;;8.80;89.60;;;;;;4116645;28;20042;-78
2023/12/30 08:12:08;;;;;;;3.75;1.58;;;8.80;89.70;;;;;;4116964;28;20086;-77
2023/12/30 08:14:10;;;;;;;3.78;1.42;;;8.80;89.60;;;;;;4116968;28;20046;-77
2023/12/30 08:16:12;;;;;;;4.57;1.45;;;8.80;89.40;;;;;;4116515;28;20047;-77
2023/12/30 08:18:13;;;;;;;3.63;1.40;;;8.80;89.40;;;;;;4116714;28;20054;-77
2023/12/30 08:20:16;;;;;;;4.35;1.33;;;8.80;89.10;;;;;;4116769;28;20408;-78
2023/12/30 08:22:18;;;;;;;5.57;1.63;;;8.80;89.00;;;;;;4116715;28;20464;-77
2023/12/30 08:24:20;;;;;;;3.28;1.20;;;8.80;88.80;;;;;;4114541;28;20047;-76
2023/12/30 08:26:22;;;;;;;3.53;1.35;;;8.80;88.60;;;;;;4116499;28;20043;-78
2023/12/30 08:28:25;;;;;;;4.85;1.40;;;8.80;88.70;;;;;;4116631;28;20059;-78
2023/12/30 08:30:27;;;;;;;3.95;1.30;;;8.80;88.50;;;;;;4116646;28;20097;-78
2023/12/30 08:32:28;;;;;;;4.35;1.40;;;8.90;88.40;;;;;;4105033;28;20445;-78
2023/12/30 08:34:30;;;;;;;5.32;1.55;;;8.90;88.20;;;;;;4100844;29;20054;-79
2023/12/30 08:36:32;;;;;;;3.47;1.40;;;8.90;88.20;;;;;;4100575;29;20476;-80
2023/12/30 08:38:33;;;;;;;2.70;1.15;;;8.80;88.20;;;;;;4108174;28;20050;-78
2023/12/30 08:40:35;;;;;;;3.75;1.38;;;8.90;88.30;;;;;;4100206;29;20051;-80
2023/12/30 08:42:37;;;;;;;4.07;1.40;;;8.90;88.20;;;;;;4100495;29;20054;-78
2023/12/30 08:44:43;;;;;;;2.83;1.10;;;8.90;88.20;;;;;;4107052;28;20050;-79
2023/12/30 08:46:45;;;;;;;3.78;1.20;;;9.00;88.10;;;;;;4115898;28;20077;-79
2023/12/30 08:48:46;;;;;;;5.45;1.40;;;8.90;88.00;;;;;;4114765;28;20042;-79
2023/12/30 08:50:49;;;;;;;6.80;1.23;;;9.00;87.90;;;;;;4115697;28;20074;-80
2023/12/30 08:52:51;;;;;;;3.38;1.30;;;9.10;87.60;;;;;;4115650;28;20039;-79
2023/12/30 08:54:52;;;;;;;3.63;1.30;;;9.10;87.40;;;;;;4116330;28;20043;-81
2023/12/30 08:56:54;;;;;;;3.63;1.40;;;9.10;87.30;;;;;;4108992;28;20408;-78
2023/12/30 08:58:55;;;;;;;3.97;1.27;;;9.10;87.10;;;;;;4116302;28;20399;-79
2023/12/30 09:00:58;;;;;;;4.35;1.27;;;9.20;86.90;;;;;;4115814;28;20094;-78
2023/12/30 09:03:00;;;;;;;3.22;1.08;;;9.20;86.70;;;;;;4115703;28;20042;-79
2023/12/30 09:05:03;;;;;;;3.80;1.20;;;9.20;86.60;;;;;;4116195;28;20093;-83
2023/12/30 09:07:05;;;;;;;3.65;1.30;;;9.30;86.50;;;;;;4116753;28;20098;-82
2023/12/30 09:09:06;;;;;;;2.45;1.00;;;9.30;86.30;;;;;;4116954;28;20113;-83
2023/12/30 09:11:18;;;;;;;3.92;1.13;;;9.30;86.10;;;;;;4117047;28;20444;-82
2023/12/30 09:13:21;;;;;;;2.70;1.13;;;9.40;85.90;;;;;;4115747;28;20055;-83
2023/12/30 09:15:23;;;;;;;3.75;1.23;;;9.40;85.60;;;;;;4117273;28;20047;-83
2023/12/30 09:17:26;;;;;;;3.33;1.00;;;9.50;85.30;;;;;;4117017;28;20050;-83
2023/12/30 09:19:28;;;;;;;4.30;1.20;;;9.50;85.10;;;;;;4116710;28;20051;-81
2023/12/30 09:21:30;;;;;;;4.15;1.20;;;9.50;85.10;;;;;;4106948;28;20082;-81
2023/12/30 09:23:32;;;;;;;3.25;1.02;;;9.60;85.20;;;;;;4103644;28;20051;-80
2023/12/30 09:25:34;;;;;;;4.10;1.10;;;9.60;84.40;;;;;;4109986;28;20428;-81
2023/12/30 09:27:35;;;;;;;2.15;1.10;;;9.70;84.20;;;;;;4115864;28;20047;-79
2023/12/30 09:29:37;;;;;;;3.90;1.30;;;9.70;84.00;;;;;;4109486;28;20117;-79
2023/12/30 09:31:39;;;;;;;3.80;1.10;;;9.80;83.80;;;;;;4114810;28;20051;-84
2023/12/30 09:33:42;;;;;;;4.60;1.23;;;9.80;83.70;;;;;;4114519;28;20168;-81
2023/12/30 09:35:44;;;;;;;4.25;1.33;;;9.90;83.40;;;;;;4115504;28;20137;-83
2023/12/30 09:37:46;;;;;;;4.60;1.40;;;9.90;83.20;;;;;;4117267;28;20051;-78
2023/12/30 09:39:47;;;;;;;2.92;1.00;;;10.00;82.70;;;;;;4117261;28;20051;-76
2023/12/30 09:41:48;;;;;;;4.10;1.20;;;10.00;82.40;;;;;;4116530;28;20500;-77
2023/12/30 09:43:51;;;;;;;3.22;1.00;;;10.10;82.10;;;;;;4117200;28;20124;-77
2023/12/30 09:45:55;;;;;;;2.60;1.10;;;10.10;81.90;;;;;;4116818;28;20051;-77
2023/12/30 09:47:59;;;;;;;3.50;1.27;;;10.20;81.20;;;;;;4115280;28;20047;-77
2023/12/30 09:50:03;;;;;;;4.43;1.30;;;10.20;81.10;;;;;;4115450;28;20050;-79
2023/12/30 09:52:06;;;;;;;2.80;1.05;;;10.30;80.50;;;;;;4116814;28;20479;-78
2023/12/30 09:54:10;;;;;;;2.53;1.10;;;10.20;81.40;;;;;;4116450;28;20047;-79
2023/12/30 09:56:12;;;;;;;3.33;1.10;;;10.20;80.50;;;;;;4116460;28;20073;-78
2023/12/30 09:58:14;;;;;;;4.45;1.10;;;10.20;81.00;;;;;;4116532;28;20466;-79
2023/12/30 10:00:16;;;;;;;3.78;1.02;;;10.20;79.90;;;;;;4116947;28;20048;-80
2023/12/30 10:02:18;;;;;;;3.05;0.93;;;10.20;80.00;;;;;;4116316;28;20105;-79
2023/12/30 10:04:20;;;;;;;2.78;0.80;;;10.20;79.10;;;;;;4117013;28;20046;-79
2023/12/30 10:06:23;;;;;;;2.97;0.80;;;10.30;78.00;;;;;;4114165;28;20050;-80
2023/12/30 10:08:26;;;;;;;2.42;0.82;;;10.30;77.30;;;;;;4108868;28;20046;-78
2023/12/30 10:10:44;;;;;;;2.42;0.90;;;10.40;76.90;;;;;;4116578;28;20514;-78
2023/12/30 10:12:46;;;;;;;5.10;2.20;;;10.40;76.40;;;;;;4105470;28;20569;-78
2023/12/30 10:14:48;;;;;;;7.40;1.10;;;10.40;76.00;;;;;;4112262;28;20047;-78
2023/12/30 10:16:50;;;;;;;2.90;1.00;;;10.50;76.70;;;;;;4114284;28;20046;-79
2023/12/30 10:18:55;;;;;;;3.28;0.90;;;10.40;75.30;;;;;;4114149;28;20511;-79
2023/12/30 10:20:58;;;;;;;3.28;0.98;;;10.40;75.40;;;;;;4116131;28;20729;-77
2023/12/30 10:23:01;;;;;;;2.50;0.98;;;10.40;75.40;;;;;;4116467;28;20133;-79
2023/12/30 10:25:03;;;;;;;2.65;0.90;;;10.40;75.20;;;;;;4107682;28;20058;-78
2023/12/30 10:27:06;;;;;;;4.80;1.00;;;10.40;75.50;;;;;;4114446;28;20065;-80
2023/12/30 10:29:09;;;;;;;2.63;0.93;;;10.40;75.30;;;;;;4106284;28;20050;-81
2023/12/30 10:31:11;;;;;;;3.63;0.90;;;10.40;74.80;;;;;;4116171;28;20043;-78
2023/12/30 10:33:14;;;;;;;2.60;0.85;;;10.40;75.00;;;;;;4115742;28;20050;-78
2023/12/30 10:35:17;;;;;;;3.72;1.10;;;10.40;74.90;;;;;;4116657;28;20039;-78
2023/12/30 10:37:20;;;;;;;2.95;1.00;;;10.50;75.30;;;;;;4117550;28;20105;-77
2023/12/30 10:39:25;;;;;;;3.25;0.80;;;10.50;74.50;;;;;;4117910;28;20106;-81
2023/12/30 10:41:27;;;;;;;2.70;0.80;;;10.40;74.30;;;;;;4117294;28;20488;-76
2023/12/30 10:43:29;;;;;;;2.05;0.75;;;10.50;74.60;;;;;;4116850;28;20050;-77
2023/12/30 10:45:31;;;;;;;2.90;0.75;;;10.50;73.90;;;;;;4117240;28;20552;-78
2023/12/30 10:47:39;;;;;;;3.47;1.00;;;10.60;73.70;;;;;;4118189;28;20078;-80
2023/12/30 10:49:44;;;;;;;3.22;1.00;;;10.70;73.60;;;;;;4118020;28;20082;-78
2023/12/30 10:51:49;;;;;;;2.80;0.85;;;10.70;73.10;;;;;;4118121;28;20069;-79
2023/12/30 10:54:02;;;;;;;2.72;0.88;;;10.70;73.20;;;;;;4118060;28;20105;-76
2023/12/30 10:56:07;;;;;;;2.28;0.80;;;10.60;73.20;;;;;;4118114;28;20047;-78
2023/12/30 10:58:17;;;;;;;2.55;0.80;;;10.70;74.00;;;;;;4117923;28;20109;-77
2023/12/30 11:00:20;;;;;;;3.90;0.90;;;10.70;73.80;;;;;;4118104;28;20054;-78
2023/12/30 11:02:22;;;;;;;2.83;0.80;;;10.60;72.80;;;;;;4117882;28;20054;-78
2023/12/30 11:04:25;;;;;;;3.42;0.90;;;10.70;73.40;;;;;;4117993;28;20054;-79
2023/12/30 11:06:35;;;;;;;3.22;0.90;;;10.80;73.10;;;;;;4117904;28;20055;-79
2023/12/30 11:08:41;;;;;;;2.97;0.80;;;10.70;72.90;;;;;;4118196;28;20535;-78
2023/12/30 11:10:44;;;;;;;2.72;1.23;;;10.70;72.80;;;;;;4100797;29;20047;-79
2023/12/30 11:12:47;;;;;;;5.10;0.95;;;10.70;72.90;;;;;;4117783;28;20105;-78
2023/12/30 11:14:50;;;;;;;3.83;0.95;;;10.80;72.60;;;;;;4117912;28;20125;-78
2023/12/30 11:16:54;;;;;;;2.72;1.10;;;10.90;72.40;;;;;;4117821;28;20047;-78
2023/12/30 11:18:58;;;;;;;4.10;0.90;;;10.90;72.10;;;;;;4117961;28;20051;-79
2023/12/30 11:21:00;;;;;;;2.55;0.90;;;11.00;71.70;;;;;;4117880;28;20053;-79
2023/12/30 11:23:04;;;;;;;2.70;0.85;;;11.00;72.00;;;;;;4117975;28;20082;-79
2023/12/30 11:25:09;;;;;;;3.58;1.05;;;11.00;71.20;;;;;;4117833;28;20109;-77
2023/12/30 11:27:10;;;;;;;3.17;0.90;;;11.10;70.90;;;;;;4118324;28;20054;-79
2023/12/30 11:29:15;;;;;;;4.55;1.00;;;11.20;70.80;;;;;;4118098;28;20318;-77
2023/12/30 11:31:17;;;;;;;2.25;0.80;;;11.20;71.30;;;;;;4117601;28;20047;-77
2023/12/30 11:33:19;;;;;;;2.50;0.77;;;11.30;70.70;;;;;;4117873;28;20050;-79
2023/12/30 11:35:21;;;;;;;3.38;0.90;;;11.40;70.40;;;;;;4117847;28;20054;-77
2023/12/30 11:37:24;;;;;;;3.97;0.90;;;11.50;70.00;;;;;;4117520;28;20055;-78
2023/12/30 11:39:30;;;;;;;2.47;0.70;;;11.50;69.10;;;;;;4117823;28;20463;-78
2023/12/30 11:41:32;;;;;;;1.92;0.90;;;11.40;69.30;;;;;;4118102;28;20065;-77
2023/12/30 11:43:34;;;;;;;2.55;0.90;;;11.40;68.00;;;;;;4118007;28;20050;-78
2023/12/30 11:45:37;;;;;;;2.05;0.90;;;11.40;68.20;;;;;;4117573;28;20113;-77
2023/12/30 11:47:39;;;;;;;2.88;0.90;;;11.50;68.70;;;;;;4118472;28;20106;-78
2023/12/30 11:49:41;;;;;;;2.65;0.80;;;11.70;68.80;;;;;;4118189;28;20085;-78
2023/12/30 11:51:43;;;;;;;3.38;0.90;;;11.80;68.60;;;;;;4117780;28;20051;-78
2023/12/30 11:53:45;;;;;;;6.82;2.92;;;12.00;68.40;;;;;;4118161;28;20046;-79
2023/12/30 11:55:47;;;;;;;9.75;4.22;;;12.20;67.60;;;;;;4117626;28;20054;-79
2023/12/30 11:57:48;;;;;;;4.07;1.23;;;12.00;66.70;;;;;;4116701;28;20101;-78
2023/12/30 11:59:50;;;;;;;2.83;0.80;;;12.10;66.70;;;;;;4117758;28;20054;-78
2023/12/30 12:01:54;;;;;;;1.70;0.70;;;12.20;65.20;;;;;;4117329;28;20054;-78
2023/12/30 12:03:56;;;;;;;2.80;0.82;;;12.10;64.30;;;;;;4117221;28;20055;-78
2023/12/30 12:05:58;;;;;;;2.33;0.73;;;12.00;64.20;;;;;;4117362;28;20388;-78
2023/12/30 12:08:00;;;;;;;1.60;0.80;;;12.20;64.70;;;;;;4117702;28;20057;-77
2023/12/30 12:10:02;;;;;;;2.58;1.00;;;12.40;64.60;;;;;;4116964;28;20518;-78
2023/12/30 12:12:04;;;;;;;4.32;1.08;;;12.40;64.20;;;;;;4117348;28;20411;-80
2023/12/30 12:14:06;;;;;;;4.05;1.10;;;12.60;63.60;;;;;;4117104;28;20113;-79
2023/12/30 12:16:08;;;;;;;3.38;1.00;;;12.60;63.90;;;;;;4116999;28;20144;-77
2023/12/30 12:18:12;;;;;;;4.97;1.10;;;12.60;63.20;;;;;;4105680;28;20456;-79
2023/12/30 12:20:13;;;;;;;2.85;1.00;;;12.50;63.90;;;;;;4099548;29;20481;-81
2023/12/30 12:22:15;;;;;;;3.40;1.10;;;12.50;64.20;;;;;;4099223;29;20456;-80
2023/12/30 12:24:17;;;;;;;4.03;1.10;;;12.60;64.10;;;;;;4113563;28;20117;-81
2023/12/30 12:26:19;;;;;;;3.35;1.27;;;12.90;63.30;;;;;;4114812;28;20116;-78
2023/12/30 12:28:23;;;;;;;3.25;1.05;;;12.80;62.40;;;;;;4113399;28;20062;-80
2023/12/30 12:30:25;;;;;;;3.05;1.00;;;12.80;63.20;;;;;;4114607;28;20070;-80
2023/12/30 12:32:26;;;;;;;3.28;1.08;;;13.00;62.10;;;;;;4115554;28;20101;-79
2023/12/30 12:34:30;;;;;;;4.70;1.00;;;12.90;62.60;;;;;;4114285;28;20051;-79
2023/12/30 12:36:32;;;;;;;2.58;1.00;;;13.10;61.60;;;;;;4114859;28;20058;-80
2023/12/30 12:38:34;;;;;;;2.67;0.90;;;13.50;61.00;;;;;;4115510;28;20050;-78
2023/12/30 12:40:36;;;;;;;2.50;0.90;;;13.70;60.40;;;;;;4115815;28;20061;-77
2023/12/30 12:42:38;;;;;;;3.45;1.02;;;14.00;59.70;;;;;;4111822;28;20054;-80
2023/12/30 12:44:40;;;;;;;2.30;0.95;;;14.40;58.70;;;;;;4131157;28;20089;-80
2023/12/30 12:46:41;;;;;;;3.75;1.10;;;14.60;57.00;;;;;;4131091;28;20835;-80
2023/12/30 12:48:43;;;;;;;2.30;1.00;;;14.70;56.50;;;;;;4125658;28;20048;-81
2023/12/30 12:50:46;;;;;;;2.00;0.90;;;16.60;54.40;;;;;;4113302;28;20055;-81
2023/12/30 12:52:47;;;;;;;3.30;1.02;;;19.40;48.60;;;;;;4114928;28;20655;-81
2023/12/30 12:54:49;;;;;;;1.52;0.90;;;21.20;44.00;;;;;;4113855;28;20105;-82
2023/12/30 12:56:51;;;;;;;2.75;1.13;;;22.70;40.70;;;;;;4114689;28;20055;-82
2023/12/30 12:58:52;;;;;;;4.10;1.10;;;23.00;39.20;;;;;;4115136;28;20100;-79
2023/12/30 13:00:54;;;;;;;3.17;1.00;;;23.30;38.80;;;;;;4113525;28;20539;-80
2023/12/30 13:02:56;;;;;;;2.20;1.00;;;24.90;36.00;;;;;;4114046;28;20802;-77
2023/12/30 13:04:57;;;;;;;3.15;1.15;;;24.80;34.50;;;;;;4113710;28;20051;-77
2023/12/30 13:07:01;;;;;;;2.40;0.90;;;24.40;35.30;;;;;;4113915;28;20053;-78
2023/12/30 13:09:22;;;;;;;2.05;0.90;;;25.30;34.40;;;;;;4114509;28;20135;-77
2023/12/30 13:11:26;;;;;;;2.83;1.00;;;25.30;33.50;;;;;;4101694;29;20059;-79
2023/12/30 13:13:29;;;;;;;3.30;0.80;;;24.40;35.00;;;;;;4101679;29;20051;-77
2023/12/30 13:15:30;;;;;;;3.45;0.90;;;23.80;34.20;;;;;;4101251;29;20061;-80
2023/12/30 13:17:31;;;;;;;3.95;0.70;;;22.00;36.40;;;;;;4104099;28;20170;-80
2023/12/30 13:19:33;;;;;;;2.88;1.00;;;19.70;41.50;;;;;;4117419;28;20054;-79
2023/12/30 13:21:34;;;;;;;1.85;0.70;;;18.40;43.90;;;;;;4117122;28;20050;-79
2023/12/30 13:23:37;;;;;;;3.30;0.90;;;17.00;47.30;;;;;;4117267;28;20567;-78
2023/12/30 13:25:40;;;;;;;2.17;0.82;;;16.30;49.40;;;;;;4117325;28;20109;-79
2023/12/30 13:27:42;;;;;;;3.40;0.90;;;15.60;51.40;;;;;;4116633;28;20109;-79
2023/12/30 13:29:44;;;;;;;3.90;1.00;;;14.90;53.00;;;;;;4117424;28;20117;-81
2023/12/30 13:31:48;;;;;;;2.47;1.05;;;14.60;54.50;;;;;;4118136;28;20539;-79
2023/12/30 13:33:50;;;;;;;2.63;0.90;;;14.30;55.30;;;;;;4117045;28;20082;-78
2023/12/30 13:35:52;;;;;;;3.30;0.98;;;14.30;55.50;;;;;;4117346;28;20058;-78
2023/12/30 13:37:55;;;;;;;1.83;0.80;;;14.10;55.80;;;;;;4117673;28;20481;-79
2023/12/30 13:40:01;;;;;;;3.40;0.93;;;13.90;56.40;;;;;;4116673;28;20749;-78
2023/12/30 13:42:04;;;;;;;2.80;0.90;;;13.90;56.10;;;;;;4116787;28;20393;-77
2023/12/30 13:44:09;;;;;;;2.90;0.90;;;13.60;56.50;;;;;;4117119;28;20097;-78
2023/12/30 13:46:30;;;;;;;2.75;0.93;;;13.60;57.10;;;;;;4117705;28;20548;-81
2023/12/30 13:50:50;;;;;;;3.05;0.90;;;13.50;57.20;;;;;;4116706;28;20053;-79
2023/12/30 13:52:53;;;;;;;3.17;1.20;;;13.40;57.60;;;;;;4117788;28;20061;-79
2023/12/30 13:54:55;;;;;;;2.35;0.90;;;13.30;57.90;;;;;;4116948;28;20051;-81
2023/12/30 13:57:11;;;;;;;3.05;0.90;;;13.30;57.80;;;;;;4117113;28;20047;-79
2023/12/30 13:59:13;;;;;;;4.57;2.25;;;13.30;58.00;;;;;;4117495;28;20059;-78
2023/12/30 14:01:16;;;;;;;3.67;1.58;;;13.40;57.80;;;;;;4117163;28;20051;-77
2023/12/30 14:03:18;;;;;;;2.70;0.90;;;13.30;58.00;;;;;;4116966;28;20137;-77
2023/12/30 14:05:28;;;;;;;2.50;1.00;;;12.80;59.10;;;;;;4117317;28;20051;-79
2023/12/30 14:07:30;;;;;;;3.38;0.95;;;12.70;60.00;;;;;;4117504;28;20052;-80
2023/12/30 14:09:42;;;;;;;1.98;0.77;;;12.80;60.70;;;;;;4116830;28;20134;-79
2023/12/30 14:11:48;;;;;;;2.38;0.73;;;12.70;59.80;;;;;;4117406;28;20582;-79
2023/12/30 14:13:51;;;;;;;2.33;0.80;;;12.80;60.00;;;;;;4117191;28;20559;-79
2023/12/30 14:15:53;;;;;;;5.22;0.93;;;12.90;60.10;;;;;;4116698;28;20377;-78
2023/12/30 14:17:54;;;;;;;3.78;0.90;;;12.80;60.10;;;;;;4117094;28;20059;-78
2023/12/30 14:19:57;;;;;;;3.30;1.00;;;12.70;59.90;;;;;;4117312;28;20065;-78
2023/12/30 14:21:59;;;;;;;2.78;0.80;;;12.70;60.60;;;;;;4115738;28;20062;-79
2023/12/30 14:24:01;;;;;;;2.28;0.80;;;12.60;60.40;;;;;;4117279;28;20105;-79
2023/12/30 14:26:03;;;;;;;2.55;0.80;;;12.70;60.60;;;;;;4116913;28;20054;-78
2023/12/30 14:28:05;;;;;;;3.75;1.10;;;12.70;60.30;;;;;;4113890;28;20094;-80
2023/12/30 14:30:11;;;;;;;2.63;0.90;;;12.60;60.60;;;;;;4101074;29;20055;-79
2023/12/30 14:32:14;;;;;;;3.15;0.98;;;12.60;60.80;;;;;;4108692;28;20050;-80
2023/12/30 14:34:14;;;;;;;2.17;0.90;;;12.70;60.80;;;;;;4100874;28;20079;-79
2023/12/30 14:36:16;;;;;;;4.65;0.90;;;12.60;60.50;;;;;;4115597;28;20054;-82
2023/12/30 14:38:19;;;;;;;2.72;0.73;;;12.60;60.60;;;;;;4117600;28;20042;-80
2023/12/30 14:40:22;;;;;;;3.03;0.70;;;12.50;61.20;;;;;;4117520;28;20449;-81
2023/12/30 14:42:24;;;;;;;1.73;0.70;;;12.40;61.30;;;;;;4116119;28;20046;-80
2023/12/30 14:44:26;;;;;;;2.38;0.90;;;12.40;61.00;;;;;;4117277;28;20078;-80
2023/12/30 14:46:29;;;;;;;1.92;0.70;;;12.40;61.00;;;;;;4116482;28;20051;-80
2023/12/30 14:48:31;;;;;;;1.90;0.77;;;12.40;61.20;;;;;;4116861;28;20121;-80
2023/12/30 14:50:33;;;;;;;2.95;1.00;;;12.40;61.10;;;;;;4115343;28;20047;-82
2023/12/30 14:52:36;;;;;;;2.88;0.88;;;12.40;61.00;;;;;;4117712;28;20117;-82
2023/12/30 14:54:39;;;;;;;1.75;0.80;;;12.40;61.10;;;;;;4116778;28;20504;-80
2023/12/30 14:56:41;;;;;;;2.22;0.80;;;12.50;61.40;;;;;;4120653;28;20078;-80
2023/12/30 14:58:43;;;;;;;3.35;1.00;;;12.50;60.90;;;;;;4117669;28;20054;-80
2023/12/30 15:00:45;;;;;;;2.00;0.70;;;12.60;61.20;;;;;;4118750;28;20066;-80
2023/12/30 15:02:50;;;;;;;2.65;0.82;;;12.50;61.60;;;;;;4100257;29;20054;-82
2023/12/30 15:04:51;;;;;;;2.10;0.73;;;12.50;61.80;;;;;;4118298;28;20069;-82
2023/12/30 15:06:54;;;;;;;1.80;0.80;;;12.50;61.90;;;;;;4117083;28;20055;-80
2023/12/30 15:08:56;;;;;;;2.40;0.80;;;12.40;62.10;;;;;;4117654;28;20463;-82
2023/12/30 15:10:58;;;;;;;2.00;0.75;;;12.40;62.20;;;;;;4117584;28;20449;-82
2023/12/30 15:12:59;;;;;;;2.80;0.90;;;12.40;62.40;;;;;;4117174;28;20096;-81
2023/12/30 15:15:01;;;;;;;2.35;0.90;;;12.40;62.60;;;;;;4117669;28;20054;-82
2023/12/30 15:17:03;;;;;;;4.55;1.50;;;12.40;62.70;;;;;;4117855;28;20101;-82
2023/12/30 15:19:06;;;;;;;9.02;5.03;;;12.30;63.10;;;;;;4117963;28;20113;-80
2023/12/30 15:21:08;;;;;;;6.03;2.90;;;12.30;63.10;;;;;;4116561;28;20102;-79
2023/12/30 15:23:10;;;;;;;2.70;1.00;;;12.30;62.90;;;;;;4116550;28;20370;-80
2023/12/30 15:25:12;;;;;;;9.18;4.05;;;12.30;63.10;;;;;;4116971;28;20555;-80
2023/12/30 15:27:14;;;;;;;4.72;1.75;;;12.30;63.30;;;;;;4116190;28;20422;-80
2023/12/30 15:29:16;;;;;;;2.90;1.10;;;12.20;63.00;;;;;;4116162;28;20133;-81
2023/12/30 15:31:18;;;;;;;2.58;0.93;;;12.20;63.60;;;;;;4117337;28;20047;-82
2023/12/30 15:33:20;;;;;;;2.63;0.80;;;12.20;63.90;;;;;;4115874;28;20055;-82
2023/12/30 15:35:24;;;;;;;2.55;1.00;;;12.20;64.20;;;;;;4117588;28;20094;-82
2023/12/30 15:37:25;;;;;;;1.63;0.70;;;12.10;63.70;;;;;;4117316;28;20102;-80
2023/12/30 15:39:27;;;;;;;3.13;1.10;;;12.10;63.70;;;;;;4116167;28;20055;-81
2023/12/30 15:41:30;;;;;;;3.72;1.20;;;12.00;63.80;;;;;;4116923;28;20101;-82
2023/12/30 15:43:32;;;;;;;3.47;1.13;;;12.00;64.20;;;;;;4117510;28;20055;-81
2023/12/30 15:45:34;;;;;;;3.13;0.98;;;12.00;64.30;;;;;;4116402;28;20046;-81
2023/12/30 15:47:36;;;;;;;2.13;0.90;;;11.90;64.10;;;;;;4116855;28;20515;-82
2023/12/30 15:49:39;;;;;;;1.95;0.80;;;11.90;63.90;;;;;;4115373;28;20051;-81
2023/12/30 15:51:43;;;;;;;2.55;0.90;;;11.90;63.90;;;;;;4115375;28;20059;-79
2023/12/30 15:53:44;;;;;;;3.72;1.00;;;11.90;64.10;;;;;;4115756;28;20065;-79
2023/12/30 15:55:48;;;;;;;2.10;0.80;;;11.80;64.20;;;;;;4115543;28;20715;-79
2023/12/30 15:57:50;;;;;;;2.78;0.80;;;11.80;64.30;;;;;;4112540;28;20537;-78
2023/12/30 15:59:52;;;;;;;2.65;1.00;;;11.80;64.40;;;;;;4110603;28;20082;-80
2023/12/30 16:01:53;;;;;;;3.05;1.13;;;11.70;64.50;;;;;;4114429;28;20082;-79
2023/12/30 16:03:55;;;;;;;4.25;1.50;;;11.70;64.70;;;;;;4115333;28;20468;-77
2023/12/30 16:05:57;;;;;;;5.72;1.70;;;11.70;65.10;;;;;;4113908;28;20050;-78
2023/12/30 16:08:01;;;;;;;3.40;1.60;;;11.70;65.30;;;;;;4115014;28;20114;-81
2023/12/30 16:10:04;;;;;;;4.05;2.00;;;11.70;65.50;;;;;;4114985;28;20068;-79
2023/12/30 16:12:06;;;;;;;4.03;1.58;;;11.60;65.60;;;;;;4114968;28;20055;-79
2023/12/30 16:14:09;;;;;;;5.35;1.48;;;11.50;66.10;;;;;;4115051;28;20085;-79
2023/12/30 16:16:11;;;;;;;5.47;2.15;;;11.50;66.20;;;;;;4115126;28;20082;-79
2023/12/30 16:18:13;;;;;;;4.50;1.90;;;11.40;66.50;;;;;;4114259;28;20054;-77
2023/12/30 16:20:15;;;;;;;5.65;3.45;;;11.30;66.80;;;;;;4115120;28;20047;-79
2023/12/30 16:22:17;;;;;;;5.63;3.30;;;11.20;67.10;;;;;;4115327;28;20459;-80
2023/12/30 16:24:20;;;;;;;6.20;2.90;;;11.30;67.40;;;;;;4114415;28;20054;-78
2023/12/30 16:26:23;;;;;;;5.25;2.40;;;11.30;67.50;;;;;;4115046;28;20055;-76
2023/12/30 16:28:25;;;;;;;4.85;2.28;;;11.20;67.60;;;;;;4115003;28;20451;-79
2023/12/30 16:30:27;;;;;;;6.32;3.13;;;11.20;68.10;;;;;;4114242;28;20050;-79
2023/12/30 16:32:30;;;;;;;4.78;2.15;;;11.10;68.10;;;;;;4115113;28;20093;-79
2023/12/30 16:34:32;;;;;;;5.68;2.40;;;11.10;68.30;;;;;;4114990;28;20054;-77
2023/12/30 16:36:35;;;;;;;5.30;2.33;;;11.10;68.30;;;;;;4114389;28;20125;-77
2023/12/30 16:38:37;;;;;;;5.55;2.22;;;11.00;68.40;;;;;;4115101;28;20080;-80
2023/12/30 16:40:39;;;;;;;6.40;3.10;;;11.00;68.30;;;;;;4114618;28;20082;-78
2023/12/30 16:42:41;;;;;;;5.13;2.28;;;11.00;68.50;;;;;;4114196;28;20405;-78
2023/12/30 16:44:42;;;;;;;5.70;2.53;;;11.00;68.50;;;;;;4115180;28;20058;-79